createdAt,value
2018-06-08T00:00:27.435Z,1010.24
2018-06-08T00:01:07.989Z,1010.21
2018-06-08T00:01:48.536Z,1010.22
2018-06-08T00:02:29.113Z,1010.2
2018-06-08T00:03:09.675Z,1010.18
2018-06-08T00:03:50.303Z,1010.22
2018-06-08T00:04:30.905Z,1010.2
2018-06-08T00:05:11.481Z,1010.2
2018-06-08T00:05:52.051Z,1010.17
2018-06-08T00:06:32.667Z,1010.16
2018-06-08T00:07:13.249Z,1010.17
2018-06-08T00:07:53.805Z,1010.16
2018-06-08T00:08:34.387Z,1010.18
2018-06-08T00:09:14.924Z,1010.18
2018-06-08T00:09:55.482Z,1010.18
2018-06-08T00:10:36.031Z,1010.19
2018-06-08T00:11:16.589Z,1010.19
2018-06-08T00:11:57.161Z,1010.18
2018-06-08T00:12:37.733Z,1010.2
2018-06-08T00:13:18.319Z,1010.13
2018-06-08T00:13:58.869Z,1010.14
2018-06-08T00:14:39.446Z,1010.14
2018-06-08T00:15:20.017Z,1010.12
2018-06-08T00:16:00.565Z,1010.14
2018-06-08T00:16:41.118Z,1010.15
2018-06-08T00:17:21.671Z,1010.13
2018-06-08T00:18:02.232Z,1010.17
2018-06-08T00:18:42.773Z,1010.12
2018-06-08T00:19:23.363Z,1010.13
2018-06-08T00:20:03.925Z,1010.13
2018-06-08T00:20:44.497Z,1010.12
2018-06-08T00:21:25.062Z,1010.11
2018-06-08T00:22:05.630Z,1010.1
2018-06-08T00:22:46.174Z,1010.13
2018-06-08T00:23:26.728Z,1010.09
2018-06-08T00:24:07.289Z,1010.12
2018-06-08T00:24:47.875Z,1010.11
2018-06-08T00:25:28.442Z,1010.13
2018-06-08T00:26:09.020Z,1010.12
2018-06-08T00:26:49.580Z,1010.15
2018-06-08T00:27:30.133Z,1010.11
2018-06-08T00:28:10.688Z,1010.15
2018-06-08T00:28:51.270Z,1010.1
2018-06-08T00:29:31.849Z,1010.1
2018-06-08T00:30:12.422Z,1010.09
2018-06-08T00:30:52.973Z,1010.05
2018-06-08T00:31:33.522Z,1010.07
2018-06-08T00:32:14.082Z,1010.06
2018-06-08T00:32:54.637Z,1010.01
2018-06-08T00:33:35.178Z,1010.06
2018-06-08T00:34:15.748Z,1010.03
2018-06-08T00:34:56.317Z,1010.03
2018-06-08T00:35:36.894Z,1010.04
2018-06-08T00:36:17.477Z,1010.05
2018-06-08T00:36:58.022Z,1010.05
2018-06-08T00:37:38.590Z,1010.03
2018-06-08T00:38:19.188Z,1010.01
2018-06-08T00:38:59.696Z,1010.05
2018-06-08T00:39:40.240Z,1010.04
2018-06-08T00:40:20.803Z,1010.05
2018-06-08T00:41:01.367Z,1010.02
2018-06-08T00:41:41.936Z,1010.04
2018-06-08T00:42:22.507Z,1010.05
2018-06-08T00:43:03.089Z,1010.04
2018-06-08T00:43:43.652Z,1010.03
2018-06-08T00:44:24.237Z,1010.03
2018-06-08T00:45:04.820Z,1010.01
2018-06-08T00:45:45.390Z,1010.04
2018-06-08T00:46:25.937Z,1010.04
2018-06-08T00:47:06.539Z,1010.05
2018-06-08T00:47:47.097Z,1010.04
2018-06-08T00:48:27.669Z,1010.02
2018-06-08T00:49:08.236Z,1010.04
2018-06-08T00:49:49.235Z,1010.02
2018-06-08T00:50:29.779Z,1010.02
2018-06-08T00:51:10.332Z,1010.03
2018-06-08T00:51:50.874Z,1010.05
2018-06-08T00:52:31.424Z,1010.06
2018-06-08T00:53:11.989Z,1010.07
2018-06-08T00:53:52.550Z,1010.05
2018-06-08T00:54:33.094Z,1010.08
2018-06-08T00:55:13.627Z,1010.06
2018-06-08T00:55:54.215Z,1010.06
2018-06-08T00:56:34.782Z,1010.05
2018-06-08T00:57:15.345Z,1010.06
2018-06-08T00:57:55.916Z,1010.08
2018-06-08T00:58:36.474Z,1010.08
2018-06-08T00:59:17.032Z,1010.04
2018-06-08T00:59:57.594Z,1010.05
2018-06-08T01:00:38.138Z,1010.06
2018-06-08T01:01:18.694Z,1010.03
2018-06-08T01:01:59.247Z,1010.04
2018-06-08T01:02:39.785Z,1010.03
2018-06-08T01:03:20.346Z,1010.02
2018-06-08T01:04:00.899Z,1010.04
2018-06-08T01:04:41.495Z,1009.99
2018-06-08T01:05:22.064Z,1009.99
2018-06-08T01:06:02.633Z,1010.02
2018-06-08T01:06:43.190Z,1009.99
2018-06-08T01:07:23.759Z,1010.02
2018-06-08T01:08:04.299Z,1010.02
2018-06-08T01:08:44.856Z,1010.03
2018-06-08T01:09:25.406Z,1010.05
2018-06-08T01:10:05.956Z,1010.03
2018-06-08T01:10:46.508Z,1010.04
2018-06-08T01:11:27.067Z,1010.04
2018-06-08T01:12:07.660Z,1010.03
2018-06-08T01:12:48.206Z,1010.03
2018-06-08T01:13:28.790Z,1010.01
2018-06-08T01:14:09.343Z,1010.03
2018-06-08T01:14:49.900Z,1010
2018-06-08T01:15:30.463Z,1009.97
2018-06-08T01:16:11.058Z,1009.99
2018-06-08T01:16:51.644Z,1009.99
2018-06-08T01:17:32.281Z,1009.97
2018-06-08T01:18:12.858Z,1009.99
2018-06-08T01:18:53.398Z,1010.01
2018-06-08T01:19:33.949Z,1009.99
2018-06-08T01:20:14.506Z,1010
2018-06-08T01:20:55.061Z,1010.03
2018-06-08T01:21:35.623Z,1010.04
2018-06-08T01:22:16.223Z,1010.04
2018-06-08T01:22:56.783Z,1010.02
2018-06-08T01:23:37.363Z,1010.03
2018-06-08T01:24:17.916Z,1010.02
2018-06-08T01:24:58.487Z,1010.01
2018-06-08T01:25:39.011Z,1010.04
2018-06-08T01:26:19.615Z,1010.03
2018-06-08T01:27:00.177Z,1010
2018-06-08T01:27:40.775Z,1010.02
2018-06-08T01:28:21.315Z,1010.03
2018-06-08T01:29:01.867Z,1010.01
2018-06-08T01:29:42.446Z,1009.97
2018-06-08T01:30:23.032Z,1010.02
2018-06-08T01:31:03.603Z,1009.98
2018-06-08T01:31:44.170Z,1009.97
2018-06-08T01:32:24.732Z,1009.98
2018-06-08T01:33:05.276Z,1009.97
2018-06-08T01:33:45.894Z,1009.94
2018-06-08T01:34:26.475Z,1009.93
2018-06-08T01:35:07.018Z,1009.93
2018-06-08T01:35:47.591Z,1009.89
2018-06-08T01:36:28.293Z,1009.88
2018-06-08T01:37:08.887Z,1009.9
2018-06-08T01:37:49.434Z,1009.88
2018-06-08T01:38:29.984Z,1009.89
2018-06-08T01:39:10.545Z,1009.89
2018-06-08T01:39:51.091Z,1009.89
2018-06-08T01:40:31.646Z,1009.89
2018-06-08T01:41:12.182Z,1009.89
2018-06-08T01:41:52.732Z,1009.86
2018-06-08T01:42:33.334Z,1009.85
2018-06-08T01:43:13.920Z,1009.91
2018-06-08T01:43:54.500Z,1009.89
2018-06-08T01:44:35.050Z,1009.87
2018-06-08T01:45:15.603Z,1009.88
2018-06-08T01:45:56.144Z,1009.88
2018-06-08T01:46:36.701Z,1009.88
2018-06-08T01:47:17.248Z,1009.86
2018-06-08T01:47:57.816Z,1009.85
2018-06-08T01:48:38.389Z,1009.84
2018-06-08T01:49:18.958Z,1009.83
2018-06-08T01:49:59.529Z,1009.81
2018-06-08T01:50:40.146Z,1009.81
2018-06-08T01:51:20.641Z,1009.84
2018-06-08T01:52:01.208Z,1009.84
2018-06-08T01:52:41.801Z,1009.81
2018-06-08T01:53:22.372Z,1009.81
2018-06-08T01:54:02.948Z,1009.82
2018-06-08T01:54:43.528Z,1009.86
2018-06-08T01:55:24.095Z,1009.83
2018-06-08T01:56:04.653Z,1009.8
2018-06-08T01:56:45.208Z,1009.85
2018-06-08T01:57:25.781Z,1009.87
2018-06-08T01:58:06.359Z,1009.88
2018-06-08T01:58:46.915Z,1009.9
2018-06-08T01:59:27.476Z,1009.88
2018-06-08T02:00:08.053Z,1009.89
2018-06-08T02:00:48.637Z,1009.88
2018-06-08T02:01:29.208Z,1009.88
2018-06-08T02:02:09.751Z,1009.89
2018-06-08T02:02:50.311Z,1009.92
2018-06-08T02:03:30.865Z,1009.94
2018-06-08T02:04:11.439Z,1009.91
2018-06-08T02:04:52.025Z,1009.89
2018-06-08T02:05:32.608Z,1009.9
2018-06-08T02:06:13.173Z,1009.9
2018-06-08T02:06:53.740Z,1009.91
2018-06-08T02:07:34.287Z,1009.88
2018-06-08T02:08:14.830Z,1009.84
2018-06-08T02:08:55.403Z,1009.89
2018-06-08T02:09:35.971Z,1009.83
2018-06-08T02:10:16.519Z,1009.84
2018-06-08T02:10:57.097Z,1009.84
2018-06-08T02:11:37.676Z,1009.84
2018-06-08T02:12:18.242Z,1009.84
2018-06-08T02:12:58.784Z,1009.83
2018-06-08T02:13:39.337Z,1009.84
2018-06-08T02:14:19.897Z,1009.79
2018-06-08T02:15:00.442Z,1009.81
2018-06-08T02:15:40.997Z,1009.84
2018-06-08T02:16:21.581Z,1009.83
2018-06-08T02:17:02.178Z,1009.84
2018-06-08T02:17:42.715Z,1009.83
2018-06-08T02:18:23.282Z,1009.83
2018-06-08T02:19:03.836Z,1009.87
2018-06-08T02:19:44.418Z,1009.86
2018-06-08T02:20:24.980Z,1009.88
2018-06-08T02:21:05.529Z,1009.87
2018-06-08T02:21:46.109Z,1009.84
2018-06-08T02:22:26.686Z,1009.88
2018-06-08T02:23:07.261Z,1009.86
2018-06-08T02:23:47.828Z,1009.88
2018-06-08T02:24:28.461Z,1009.88
2018-06-08T02:25:09.012Z,1009.87
2018-06-08T02:25:49.585Z,1009.85
2018-06-08T02:26:30.142Z,1009.88
2018-06-08T02:27:10.731Z,1009.86
2018-06-08T02:27:51.295Z,1009.81
2018-06-08T02:28:31.834Z,1009.81
2018-06-08T02:29:12.438Z,1009.82
2018-06-08T02:29:52.987Z,1009.8
2018-06-08T02:30:33.578Z,1009.81
2018-06-08T02:31:14.158Z,1009.79
2018-06-08T02:31:54.691Z,1009.78
2018-06-08T02:32:35.250Z,1009.82
2018-06-08T02:33:15.825Z,1009.81
2018-06-08T02:33:56.419Z,1009.82
2018-06-08T02:34:36.982Z,1009.84
2018-06-08T02:35:17.535Z,1009.81
2018-06-08T02:35:58.106Z,1009.8
2018-06-08T02:36:38.706Z,1009.78
2018-06-08T02:37:19.279Z,1009.79
2018-06-08T02:37:59.851Z,1009.81
2018-06-08T02:38:40.412Z,1009.79
2018-06-08T02:39:20.977Z,1009.82
2018-06-08T02:40:01.536Z,1009.8
2018-06-08T02:40:42.111Z,1009.81
2018-06-08T02:41:22.675Z,1009.77
2018-06-08T02:42:03.254Z,1009.8
2018-06-08T02:42:43.808Z,1009.81
2018-06-08T02:43:24.382Z,1009.82
2018-06-08T02:44:04.920Z,1009.81
2018-06-08T02:44:45.507Z,1009.79
2018-06-08T02:45:26.074Z,1009.78
2018-06-08T02:46:06.642Z,1009.82
2018-06-08T02:46:47.214Z,1009.81
2018-06-08T02:47:27.789Z,1009.78
2018-06-08T02:48:08.347Z,1009.79
2018-06-08T02:48:48.891Z,1009.81
2018-06-08T02:49:29.496Z,1009.78
2018-06-08T02:50:10.061Z,1009.81
2018-06-08T02:50:50.638Z,1009.75
2018-06-08T02:51:31.182Z,1009.77
2018-06-08T02:52:11.746Z,1009.76
2018-06-08T02:52:52.277Z,1009.81
2018-06-08T02:53:32.835Z,1009.81
2018-06-08T02:54:13.399Z,1009.79
2018-06-08T02:54:53.983Z,1009.77
2018-06-08T02:55:34.542Z,1009.79
2018-06-08T02:56:15.119Z,1009.78
2018-06-08T02:56:55.680Z,1009.8
2018-06-08T02:57:36.241Z,1009.81
2018-06-08T02:58:16.822Z,1009.84
2018-06-08T02:58:57.423Z,1009.79
2018-06-08T02:59:37.993Z,1009.79
2018-06-08T03:00:18.564Z,1009.76
2018-06-08T03:00:59.117Z,1009.77
2018-06-08T03:01:39.674Z,1009.79
2018-06-08T03:02:20.291Z,1009.8
2018-06-08T03:03:00.851Z,1009.82
2018-06-08T03:03:41.407Z,1009.78
2018-06-08T03:04:21.950Z,1009.83
2018-06-08T03:05:02.539Z,1009.81
2018-06-08T03:05:43.105Z,1009.81
2018-06-08T03:06:23.683Z,1009.82
2018-06-08T03:07:04.246Z,1009.76
2018-06-08T03:07:44.807Z,1009.79
2018-06-08T03:08:25.412Z,1009.81
2018-06-08T03:09:05.974Z,1009.79
2018-06-08T03:09:46.537Z,1009.83
2018-06-08T03:10:27.116Z,1009.84
2018-06-08T03:11:07.660Z,1009.79
2018-06-08T03:11:48.228Z,1009.82
2018-06-08T03:12:28.785Z,1009.8
2018-06-08T03:13:09.365Z,1009.8
2018-06-08T03:13:49.941Z,1009.79
2018-06-08T03:14:30.515Z,1009.82
2018-06-08T03:15:11.072Z,1009.78
2018-06-08T03:15:51.637Z,1009.8
2018-06-08T03:16:32.171Z,1009.8
2018-06-08T03:17:12.732Z,1009.84
2018-06-08T03:17:53.298Z,1009.8
2018-06-08T03:18:33.873Z,1009.82
2018-06-08T03:19:14.427Z,1009.82
2018-06-08T03:19:54.999Z,1009.83
2018-06-08T03:20:35.584Z,1009.84
2018-06-08T03:21:16.126Z,1009.83
2018-06-08T03:21:56.679Z,1009.82
2018-06-08T03:22:37.232Z,1009.81
2018-06-08T03:23:17.790Z,1009.83
2018-06-08T03:23:58.368Z,1009.84
2018-06-08T03:24:38.994Z,1009.84
2018-06-08T03:25:19.498Z,1009.81
2018-06-08T03:26:00.074Z,1009.8
2018-06-08T03:26:40.646Z,1009.84
2018-06-08T03:27:21.211Z,1009.85
2018-06-08T03:28:01.807Z,1009.84
2018-06-08T03:28:42.364Z,1009.84
2018-06-08T03:29:22.931Z,1009.86
2018-06-08T03:30:03.483Z,1009.86
2018-06-08T03:30:44.038Z,1009.78
2018-06-08T03:31:24.604Z,1009.84
2018-06-08T03:32:05.167Z,1009.85
2018-06-08T03:32:45.735Z,1009.82
2018-06-08T03:33:26.439Z,1009.85
2018-06-08T03:34:07.763Z,1009.81
2018-06-08T03:34:49.866Z,1009.82
2018-06-08T03:35:32.283Z,1009.81
2018-06-08T03:36:16.050Z,1009.8
2018-06-08T03:36:58.061Z,1009.8
2018-06-08T03:37:39.148Z,1009.83
2018-06-08T03:38:20.238Z,1009.81
2018-06-08T03:39:02.159Z,1009.77
2018-06-08T03:39:44.401Z,1009.8
2018-06-08T03:40:27.445Z,1009.77
2018-06-08T03:41:09.355Z,1009.79
2018-06-08T03:41:51.534Z,1009.79
2018-06-08T03:42:35.153Z,1009.78
2018-06-08T03:43:17.271Z,1009.82
2018-06-08T03:43:58.602Z,1009.81
2018-06-08T03:44:40.766Z,1009.8
2018-06-08T03:45:22.086Z,1009.8
2018-06-08T03:46:03.363Z,1009.8
2018-06-08T03:46:44.464Z,1009.82
2018-06-08T03:47:25.518Z,1009.81
2018-06-08T03:48:06.535Z,1009.8
2018-06-08T03:48:47.743Z,1009.79
2018-06-08T03:49:29.557Z,1009.84
2018-06-08T03:50:10.637Z,1009.77
2018-06-08T03:50:51.777Z,1009.8
2018-06-08T03:51:32.718Z,1009.77
2018-06-08T03:52:13.796Z,1009.8
2018-06-08T03:52:55.528Z,1009.78
2018-06-08T03:53:37.573Z,1009.79
2018-06-08T03:54:19.185Z,1009.78
2018-06-08T03:55:00.435Z,1009.81
2018-06-08T03:55:41.505Z,1009.79
2018-06-08T03:56:22.506Z,1009.82
2018-06-08T03:57:03.408Z,1009.78
2018-06-08T03:57:45.225Z,1009.76
2018-06-08T03:58:26.516Z,1009.78
2018-06-08T03:59:07.637Z,1009.77
2018-06-08T03:59:48.667Z,1009.78
2018-06-08T04:00:29.743Z,1009.78
2018-06-08T04:01:11.278Z,1009.75
2018-06-08T04:01:52.402Z,1009.72
2018-06-08T04:02:33.411Z,1009.75
2018-06-08T04:03:14.358Z,1009.73
2018-06-08T04:03:55.320Z,1009.73
2018-06-08T04:04:36.459Z,1009.74
2018-06-08T04:05:17.660Z,1009.71
2018-06-08T04:05:58.715Z,1009.77
2018-06-08T04:06:39.707Z,1009.71
2018-06-08T04:07:20.361Z,1009.77
2018-06-08T04:08:01.098Z,1009.73
2018-06-08T04:08:42.962Z,1009.76
2018-06-08T04:09:23.738Z,1009.77
2018-06-08T04:10:04.320Z,1009.76
2018-06-08T04:10:44.898Z,1009.76
2018-06-08T04:11:25.480Z,1009.74
2018-06-08T04:12:07.023Z,1009.77
2018-06-08T04:12:47.594Z,1009.78
2018-06-08T04:13:28.282Z,1009.77
2018-06-08T04:14:08.968Z,1009.73
2018-06-08T04:14:49.623Z,1009.75
2018-06-08T04:15:30.276Z,1009.77
2018-06-08T04:16:10.985Z,1009.77
2018-06-08T04:16:51.599Z,1009.74
2018-06-08T04:17:32.534Z,1009.77
2018-06-08T04:18:13.329Z,1009.83
2018-06-08T04:18:54.071Z,1009.83
2018-06-08T04:19:34.654Z,1009.8
2018-06-08T04:20:15.202Z,1009.84
2018-06-08T04:20:55.750Z,1009.81
2018-06-08T04:21:36.337Z,1009.85
2018-06-08T04:22:16.904Z,1009.84
2018-06-08T04:22:57.480Z,1009.82
2018-06-08T04:23:38.038Z,1009.84
2018-06-08T04:24:18.646Z,1009.85
2018-06-08T04:24:59.224Z,1009.85
2018-06-08T04:25:39.789Z,1009.85
2018-06-08T04:26:20.344Z,1009.84
2018-06-08T04:27:00.906Z,1009.86
2018-06-08T04:27:41.737Z,1009.86
2018-06-08T04:28:22.866Z,1009.83
2018-06-08T04:29:03.899Z,1009.88
2018-06-08T04:29:45.748Z,1009.87
2018-06-08T04:30:26.724Z,1009.82
2018-06-08T04:31:07.801Z,1009.85
2018-06-08T04:31:48.915Z,1009.84
2018-06-08T04:32:30.055Z,1009.83
2018-06-08T04:33:11.266Z,1009.84
2018-06-08T04:33:52.223Z,1009.86
2018-06-08T04:34:33.323Z,1009.83
2018-06-08T04:35:14.304Z,1009.84
2018-06-08T04:35:55.341Z,1009.83
2018-06-08T04:36:38.255Z,1009.85
2018-06-08T04:37:19.368Z,1009.82
2018-06-08T04:38:01.240Z,1009.83
2018-06-08T04:38:42.460Z,1009.86
2018-06-08T04:39:23.570Z,1009.88
2018-06-08T04:40:04.783Z,1009.87
2018-06-08T04:40:45.838Z,1009.84
2018-06-08T04:41:26.821Z,1009.9
2018-06-08T04:42:07.761Z,1009.88
2018-06-08T04:42:48.843Z,1009.87
2018-06-08T04:43:29.879Z,1009.9
2018-06-08T04:44:11.067Z,1009.93
2018-06-08T04:44:52.256Z,1009.88
2018-06-08T04:45:33.378Z,1009.88
2018-06-08T04:46:15.257Z,1009.88
2018-06-08T04:46:56.493Z,1009.88
2018-06-08T04:47:37.611Z,1009.85
2018-06-08T04:48:18.734Z,1009.88
2018-06-08T04:48:59.871Z,1009.89
2018-06-08T04:49:40.688Z,1009.93
2018-06-08T04:50:21.772Z,1009.93
2018-06-08T04:51:04.501Z,1009.93
2018-06-08T04:51:45.626Z,1009.94
2018-06-08T04:52:26.596Z,1009.9
2018-06-08T04:53:07.708Z,1009.94
2018-06-08T04:53:48.831Z,1009.92
2018-06-08T04:54:30.081Z,1009.93
2018-06-08T04:55:11.252Z,1009.93
2018-06-08T04:55:52.787Z,1009.94
2018-06-08T04:56:34.761Z,1009.94
2018-06-08T04:57:15.927Z,1009.97
2018-06-08T04:57:57.028Z,1009.92
2018-06-08T04:58:38.258Z,1009.93
2018-06-08T04:59:19.393Z,1009.9
2018-06-08T05:00:01.608Z,1009.91
2018-06-08T05:00:42.618Z,1009.92
2018-06-08T05:01:23.787Z,1009.95
2018-06-08T05:02:04.923Z,1009.93
2018-06-08T05:02:46.235Z,1009.91
2018-06-08T05:03:27.352Z,1009.9
2018-06-08T05:04:08.476Z,1009.91
2018-06-08T05:04:49.581Z,1009.94
2018-06-08T05:05:30.509Z,1009.93
2018-06-08T05:06:11.807Z,1009.9
2018-06-08T05:06:52.887Z,1009.88
2018-06-08T05:07:33.991Z,1009.82
2018-06-08T05:08:15.130Z,1009.85
2018-06-08T05:08:56.355Z,1009.83
2018-06-08T05:09:37.963Z,1009.83
2018-06-08T05:10:19.136Z,1009.84
2018-06-08T05:11:00.277Z,1009.83
2018-06-08T05:11:41.509Z,1009.83
2018-06-08T05:12:22.677Z,1009.92
2018-06-08T05:13:04.594Z,1009.85
2018-06-08T05:13:45.719Z,1009.78
2018-06-08T05:14:26.979Z,1009.74
2018-06-08T05:15:08.150Z,1009.76
2018-06-08T05:15:49.284Z,1009.73
2018-06-08T05:16:30.416Z,1009.77
2018-06-08T05:17:12.418Z,1009.74
2018-06-08T05:17:53.505Z,1009.7
2018-06-08T05:18:34.423Z,1009.69
2018-06-08T05:19:16.251Z,1009.65
2018-06-08T05:19:57.238Z,1009.72
2018-06-08T05:20:40.203Z,1009.71
2018-06-08T05:21:21.213Z,1009.71
2018-06-08T05:22:02.226Z,1009.73
2018-06-08T05:22:43.275Z,1009.71
2018-06-08T05:23:24.426Z,1009.77
2018-06-08T05:24:05.465Z,1009.8
2018-06-08T05:24:46.541Z,1009.81
2018-06-08T05:25:28.273Z,1009.82
2018-06-08T05:26:09.319Z,1009.88
2018-06-08T05:26:50.364Z,1010.02
2018-06-08T05:27:31.492Z,1009.98
2018-06-08T05:28:12.482Z,1009.99
2018-06-08T05:28:53.605Z,1010
2018-06-08T05:29:34.830Z,1010.05
2018-06-08T05:30:16.123Z,1010.09
2018-06-08T05:30:57.259Z,1010.13
2018-06-08T05:31:38.465Z,1010.12
2018-06-08T05:32:19.571Z,1010.17
2018-06-08T05:33:00.794Z,1010.17
2018-06-08T05:33:41.763Z,1010.24
2018-06-08T05:34:22.629Z,1010.28
2018-06-08T05:35:03.645Z,1010.34
2018-06-08T05:35:44.846Z,1010.38
2018-06-08T05:36:25.945Z,1010.45
2018-06-08T05:37:06.966Z,1010.53
2018-06-08T05:37:48.063Z,1010.57
2018-06-08T05:38:29.166Z,1010.56
2018-06-08T05:39:10.226Z,1010.69
2018-06-08T05:39:51.410Z,1010.77
2018-06-08T05:40:32.421Z,1010.78
2018-06-08T05:41:13.121Z,1010.86
2018-06-08T05:41:53.688Z,1010.88
2018-06-08T05:42:34.264Z,1010.93
2018-06-08T05:43:14.849Z,1011.01
2018-06-08T05:43:55.399Z,1011.04
2018-06-08T05:44:35.957Z,1011.1
2018-06-08T05:45:16.508Z,1011.16
2018-06-08T05:45:57.102Z,1011.25
2018-06-08T05:46:37.684Z,1011.28
2018-06-08T05:47:18.243Z,1011.33
2018-06-08T05:47:58.821Z,1011.44
2018-06-08T05:48:39.395Z,1011.45
2018-06-08T05:49:19.995Z,1011.49
2018-06-08T05:50:00.561Z,1011.59
2018-06-08T05:50:41.118Z,1011.69
2018-06-08T05:51:21.676Z,1011.8
2018-06-08T05:52:02.418Z,1011.75
2018-06-08T05:52:43.018Z,1011.66
2018-06-08T05:53:23.577Z,1011.73
2018-06-08T05:54:04.220Z,1011.69
2018-06-08T05:54:44.874Z,1011.79
2018-06-08T05:55:25.472Z,1011.86
2018-06-08T05:56:06.048Z,1011.81
2018-06-08T05:56:46.629Z,1011.63
2018-06-08T05:57:27.269Z,1011.46
2018-06-08T05:58:07.852Z,1011.46
2018-06-08T05:58:48.416Z,1011.43
2018-06-08T05:59:28.991Z,1011.36
2018-06-08T06:00:09.589Z,1011.32
2018-06-08T06:00:50.156Z,1011.47
2018-06-08T06:01:30.722Z,1011.4
2018-06-08T06:02:11.310Z,1011.32
2018-06-08T06:02:51.881Z,1011.31
2018-06-08T06:03:32.450Z,1011.28
2018-06-08T06:04:13.221Z,1011.32
2018-06-08T06:04:53.880Z,1011.27
2018-06-08T06:05:34.430Z,1011.25
2018-06-08T06:06:14.994Z,1011.16
2018-06-08T06:06:55.615Z,1011.18
2018-06-08T06:07:36.179Z,1011.17
2018-06-08T06:08:16.752Z,1011.12
2018-06-08T06:08:57.327Z,1011.11
2018-06-08T06:09:37.887Z,1011.25
2018-06-08T06:10:18.464Z,1011.32
2018-06-08T06:10:59.035Z,1011.46
2018-06-08T06:11:39.597Z,1011.52
2018-06-08T06:12:20.174Z,1011.43
2018-06-08T06:13:00.753Z,1011.38
2018-06-08T06:13:41.334Z,1011.41
2018-06-08T06:14:21.986Z,1011.51
2018-06-08T06:15:02.614Z,1011.45
2018-06-08T06:15:43.209Z,1011.31
2018-06-08T06:16:23.776Z,1011.24
2018-06-08T06:17:04.441Z,1011.21
2018-06-08T06:17:45.104Z,1011.22
2018-06-08T06:18:25.601Z,1011.21
2018-06-08T06:19:06.171Z,1011.27
2018-06-08T06:19:46.729Z,1011.42
2018-06-08T06:20:27.294Z,1011.44
2018-06-08T06:21:07.875Z,1011.46
2018-06-08T06:21:48.442Z,1011.46
2018-06-08T06:22:29.008Z,1011.43
2018-06-08T06:23:09.640Z,1011.48
2018-06-08T06:23:50.270Z,1011.6
2018-06-08T06:24:30.850Z,1011.79
2018-06-08T06:25:11.423Z,1011.87
2018-06-08T06:25:51.988Z,1011.82
2018-06-08T06:26:32.539Z,1011.75
2018-06-08T06:27:13.122Z,1011.71
2018-06-08T06:27:53.704Z,1011.65
2018-06-08T06:28:34.279Z,1011.66
2018-06-08T06:29:14.831Z,1011.67
2018-06-08T06:29:55.448Z,1011.7
2018-06-08T06:30:36.015Z,1011.64
2018-06-08T06:31:16.578Z,1011.64
2018-06-08T06:31:57.143Z,1011.51
2018-06-08T06:32:37.721Z,1011.38
2018-06-08T06:33:18.274Z,1011.5
2018-06-08T06:33:58.866Z,1011.59
2018-06-08T06:34:39.434Z,1011.6
2018-06-08T06:35:19.991Z,1011.55
2018-06-08T06:36:00.558Z,1011.6
2018-06-08T06:36:41.147Z,1011.61
2018-06-08T06:37:21.724Z,1011.51
2018-06-08T06:38:02.338Z,1011.46
2018-06-08T06:38:42.922Z,1011.45
2018-06-08T06:39:23.491Z,1011.39
2018-06-08T06:40:04.117Z,1011.2
2018-06-08T06:40:44.630Z,1010.95
2018-06-08T06:41:25.218Z,1010.77
2018-06-08T06:42:05.806Z,1010.62
2018-06-08T06:42:46.364Z,1010.58
2018-06-08T06:43:26.935Z,1010.56
2018-06-08T06:44:07.531Z,1010.51
2018-06-08T06:44:48.133Z,1010.51
2018-06-08T06:45:28.727Z,1010.48
2018-06-08T06:46:09.300Z,1010.47
2018-06-08T06:46:49.874Z,1010.46
2018-06-08T06:47:30.473Z,1010.46
2018-06-08T06:48:11.039Z,1010.47
2018-06-08T06:48:51.621Z,1010.43
2018-06-08T06:49:32.221Z,1010.53
2018-06-08T06:50:13.033Z,1010.6
2018-06-08T06:50:53.609Z,1010.79
2018-06-08T06:51:34.186Z,1010.77
2018-06-08T06:52:14.786Z,1010.82
2018-06-08T06:52:55.357Z,1010.82
2018-06-08T06:53:35.926Z,1010.75
2018-06-08T06:54:16.504Z,1010.6
2018-06-08T06:54:57.125Z,1010.42
2018-06-08T06:55:37.816Z,1010.39
2018-06-08T06:56:18.376Z,1010.36
2018-06-08T06:56:59.005Z,1010.33
2018-06-08T06:57:39.590Z,1010.33
2018-06-08T06:58:20.148Z,1010.31
2018-06-08T06:59:00.726Z,1010.35
2018-06-08T06:59:41.377Z,1010.3
2018-06-08T07:00:21.935Z,1010.35
2018-06-08T07:01:02.592Z,1010.28
2018-06-08T07:01:43.291Z,1010.35
2018-06-08T07:02:23.855Z,1010.32
2018-06-08T07:03:04.436Z,1010.34
2018-06-08T07:03:45.013Z,1010.31
2018-06-08T07:04:25.602Z,1010.33
2018-06-08T07:05:06.148Z,1010.29
2018-06-08T07:05:46.722Z,1010.33
2018-06-08T07:06:27.580Z,1010.29
2018-06-08T07:07:08.180Z,1010.3
2018-06-08T07:07:48.762Z,1010.31
2018-06-08T07:08:29.336Z,1010.34
2018-06-08T07:09:09.947Z,1010.38
2018-06-08T07:09:50.624Z,1010.48
2018-06-08T07:10:31.240Z,1010.57
2018-06-08T07:11:11.781Z,1010.58
2018-06-08T07:11:52.356Z,1010.47
2018-06-08T07:12:32.956Z,1010.37
2018-06-08T07:13:13.513Z,1010.32
2018-06-08T07:13:54.092Z,1010.35
2018-06-08T07:14:34.717Z,1010.33
2018-06-08T07:15:15.321Z,1010.34
2018-06-08T07:15:55.883Z,1010.32
2018-06-08T07:16:36.497Z,1010.35
2018-06-08T07:17:17.083Z,1010.35
2018-06-08T07:17:57.639Z,1010.37
2018-06-08T07:18:38.187Z,1010.49
2018-06-08T07:19:18.788Z,1010.72
2018-06-08T07:19:59.372Z,1011.06
2018-06-08T07:20:39.925Z,1011.35
2018-06-08T07:21:20.594Z,1011.55
2018-06-08T07:22:01.217Z,1011.53
2018-06-08T07:22:41.788Z,1011.34
2018-06-08T07:23:22.459Z,1011.18
2018-06-08T07:24:03.020Z,1010.97
2018-06-08T07:24:43.944Z,1010.75
2018-06-08T07:25:24.573Z,1010.56
2018-06-08T07:26:05.147Z,1010.42
2018-06-08T07:26:45.742Z,1010.27
2018-06-08T07:27:26.332Z,1010.23
2018-06-08T07:28:06.894Z,1010.17
2018-06-08T07:28:47.463Z,1010.15
2018-06-08T07:29:28.032Z,1010.16
2018-06-08T07:30:08.599Z,1010.17
2018-06-08T07:30:49.183Z,1010.11
2018-06-08T07:31:29.788Z,1010.12
2018-06-08T07:32:10.328Z,1010.09
2018-06-08T07:32:50.903Z,1010.13
2018-06-08T07:33:31.473Z,1010.11
2018-06-08T07:34:12.042Z,1010.12
2018-06-08T07:34:52.627Z,1010.12
2018-06-08T07:35:33.201Z,1010.1
2018-06-08T07:36:13.754Z,1010.12
2018-06-08T07:36:54.343Z,1010.17
2018-06-08T07:37:34.902Z,1010.16
2018-06-08T07:38:15.570Z,1010.19
2018-06-08T07:38:56.135Z,1010.18
2018-06-08T07:39:36.703Z,1010.14
2018-06-08T07:40:17.397Z,1010.15
2018-06-08T07:40:58.185Z,1010.15
2018-06-08T07:41:38.877Z,1010.15
2018-06-08T07:42:19.489Z,1010.17
2018-06-08T07:43:00.188Z,1010.18
2018-06-08T07:43:41.156Z,1010.18
2018-06-08T07:44:21.737Z,1010.14
2018-06-08T07:45:02.315Z,1010.2
2018-06-08T07:45:43.035Z,1010.16
2018-06-08T07:46:23.651Z,1010.22
2018-06-08T07:47:04.552Z,1010.18
2018-06-08T07:47:45.159Z,1010.21
2018-06-08T07:48:25.913Z,1010.17
2018-06-08T07:49:06.472Z,1010.26
2018-06-08T07:49:47.093Z,1010.24
2018-06-08T07:50:27.655Z,1010.23
2018-06-08T07:51:08.254Z,1010.29
2018-06-08T07:51:48.851Z,1010.28
2018-06-08T07:52:29.422Z,1010.26
2018-06-08T07:53:10.004Z,1010.24
2018-06-08T07:53:50.594Z,1010.25
2018-06-08T07:54:31.156Z,1010.23
2018-06-08T07:55:11.762Z,1010.27
2018-06-08T07:55:52.379Z,1010.28
2018-06-08T07:56:32.950Z,1010.19
2018-06-08T07:57:13.528Z,1010.18
2018-06-08T07:57:54.089Z,1010.2
2018-06-08T07:58:36.301Z,1010.19
2018-06-08T07:59:16.873Z,1010.21
2018-06-08T07:59:57.470Z,1010.21
2018-06-08T08:00:38.041Z,1010.18
2018-06-08T08:01:18.622Z,1010.18
2018-06-08T08:01:59.182Z,1010.13
2018-06-08T08:02:39.749Z,1010.18
2018-06-08T08:03:20.327Z,1010.17
2018-06-08T08:04:00.901Z,1010.16
2018-06-08T08:04:41.497Z,1010.18
2018-06-08T08:05:22.089Z,1010.15
2018-06-08T08:06:02.663Z,1010.18
2018-06-08T08:06:43.226Z,1010.14
2018-06-08T08:07:23.803Z,1010.16
2018-06-08T08:08:04.367Z,1010.12
2018-06-08T08:08:44.947Z,1010.15
2018-06-08T08:09:25.520Z,1010.11
2018-06-08T08:10:06.100Z,1010.13
2018-06-08T08:10:46.678Z,1010.11
2018-06-08T08:11:27.252Z,1010.12
2018-06-08T08:12:07.835Z,1010.15
2018-06-08T08:12:48.469Z,1010.09
2018-06-08T08:13:29.045Z,1010.08
2018-06-08T08:14:09.630Z,1010.11